createdAt,value
2018-08-27T00:00:40.263Z,55.62
2018-08-27T00:01:39.964Z,55.77
2018-08-27T00:02:39.935Z,55.71
2018-08-27T00:03:39.954Z,55.62
2018-08-27T00:04:40.060Z,55.78
2018-08-27T00:05:40.117Z,55.58
2018-08-27T00:06:39.944Z,55.57
2018-08-27T00:07:40.236Z,55.31
2018-08-27T00:08:40.193Z,55.31
2018-08-27T00:09:40.040Z,55.84
2018-08-27T00:10:40.115Z,55.43
2018-08-27T00:11:39.952Z,55.32
2018-08-27T00:12:39.981Z,55.78
2018-08-27T00:13:39.969Z,55.43
2018-08-27T00:14:39.971Z,55.68
2018-08-27T00:15:40.028Z,55.25
2018-08-27T00:16:39.989Z,55.96
2018-08-27T00:17:40.209Z,55.34
2018-08-27T00:18:39.996Z,56.52
2018-08-27T00:19:39.971Z,55.85
2018-08-27T00:20:39.981Z,55.93
2018-08-27T00:21:40.076Z,56.41
2018-08-27T00:22:40.065Z,56.22
2018-08-27T00:23:39.994Z,55.67
2018-08-27T00:24:39.969Z,55.58
2018-08-27T00:25:39.990Z,56.17
2018-08-27T00:26:39.997Z,56.15
2018-08-27T00:27:40.045Z,56.09
2018-08-27T00:28:39.985Z,56.62
2018-08-27T00:29:40.121Z,56.2
2018-08-27T00:30:39.982Z,56.59
2018-08-27T00:31:40.053Z,56.71
2018-08-27T00:32:40.008Z,56.71
2018-08-27T00:33:40.317Z,57.08
2018-08-27T00:34:40.028Z,57.04
2018-08-27T00:35:40.122Z,56.95
2018-08-27T00:36:39.967Z,57.51
2018-08-27T00:37:40.216Z,57.05
2018-08-27T00:38:40.051Z,57.25
2018-08-27T00:39:40.029Z,56.97
2018-08-27T00:40:40.101Z,56.59
2018-08-27T00:41:39.994Z,57.39
2018-08-27T00:42:40.160Z,57.17
2018-08-27T00:43:40.028Z,57.25
2018-08-27T00:44:40.004Z,56.62
2018-08-27T00:45:40.001Z,56.67
2018-08-27T00:46:40.501Z,56.99
2018-08-27T00:47:40.053Z,57.08
2018-08-27T00:48:40.019Z,56.63
2018-08-27T00:49:40.080Z,57.39
2018-08-27T00:50:40.071Z,57.18
2018-08-27T00:51:40.019Z,57.18
2018-08-27T00:52:40.074Z,56.98
2018-08-27T00:53:40.158Z,57.16
2018-08-27T00:54:40.274Z,57.53
2018-08-27T00:55:40.081Z,56.92
2018-08-27T00:56:40.005Z,57.3
2018-08-27T00:57:40.077Z,57.09
2018-08-27T00:58:40.021Z,57.12
2018-08-27T00:59:40.021Z,57.48
2018-08-27T01:00:40.175Z,57.05
2018-08-27T01:01:40.004Z,57.42
2018-08-27T01:02:40.029Z,56.83
2018-08-27T01:03:40.007Z,57.34
2018-08-27T01:04:40.022Z,56.81
2018-08-27T01:05:40.009Z,57.46
2018-08-27T01:06:40.004Z,57.03
2018-08-27T01:07:40.033Z,57.45
2018-08-27T01:08:40.062Z,57.09
2018-08-27T01:09:40.022Z,57.33
2018-08-27T01:10:40.043Z,57.55
2018-08-27T01:11:40.008Z,57.28
2018-08-27T01:12:40.011Z,57.31
2018-08-27T01:13:40.011Z,57.32
2018-08-27T01:14:40.018Z,57.86
2018-08-27T01:15:40.031Z,57.16
2018-08-27T01:16:40.036Z,57.19
2018-08-27T01:17:40.038Z,57.44
2018-08-27T01:18:40.046Z,57.38
2018-08-27T01:19:40.061Z,57.09
2018-08-27T01:20:40.215Z,56.98
2018-08-27T01:21:40.056Z,57.31
2018-08-27T01:22:40.182Z,57.05
2018-08-27T01:23:40.071Z,56.73
2018-08-27T01:24:40.189Z,56.67
2018-08-27T01:25:40.222Z,56.63
2018-08-27T01:26:40.053Z,56.64
2018-08-27T01:27:40.041Z,56.81
2018-08-27T01:28:40.068Z,56.99
2018-08-27T01:29:40.128Z,56.81
2018-08-27T01:30:40.055Z,56.6
2018-08-27T01:31:40.063Z,56.45
2018-08-27T01:32:40.255Z,56.56
2018-08-27T01:33:40.371Z,56.69
2018-08-27T01:34:40.211Z,56.31
2018-08-27T01:35:40.041Z,56.45
2018-08-27T01:36:40.368Z,56.6
2018-08-27T01:37:40.050Z,56.71
2018-08-27T01:38:40.072Z,56.54
2018-08-27T01:39:40.129Z,56.51
2018-08-27T01:40:40.112Z,56.29
2018-08-27T01:41:40.187Z,56.56
2018-08-27T01:42:40.097Z,56.2
2018-08-27T01:43:40.075Z,56.35
2018-08-27T01:44:40.096Z,56.37
2018-08-27T01:45:40.270Z,56.19
2018-08-27T01:46:40.254Z,56.34
2018-08-27T01:47:40.205Z,56.19
2018-08-27T01:48:40.320Z,56.34
2018-08-27T01:49:40.115Z,56.1
2018-08-27T01:50:40.089Z,56.11
2018-08-27T01:51:40.082Z,55.93
2018-08-27T01:52:40.137Z,56.25
2018-08-27T01:53:40.067Z,56.41
2018-08-27T01:54:40.086Z,56.19
2018-08-27T01:55:40.260Z,56.07
2018-08-27T01:56:40.362Z,56.25
2018-08-27T01:57:40.069Z,56.71
2018-08-27T01:58:40.175Z,56.3
2018-08-27T01:59:40.228Z,56.09
2018-08-27T02:00:40.068Z,56
2018-08-27T02:01:40.110Z,56.33
2018-08-27T02:02:40.080Z,56.2
2018-08-27T02:03:40.426Z,56.68
2018-08-27T02:04:40.184Z,56.76
2018-08-27T02:05:40.318Z,56.12
2018-08-27T02:06:40.122Z,56.39
2018-08-27T02:07:40.142Z,56.28
2018-08-27T02:08:40.186Z,56.26
2018-08-27T02:09:40.270Z,56.32
2018-08-27T02:10:40.198Z,56.27
2018-08-27T02:11:40.102Z,56.22
2018-08-27T02:12:40.220Z,56.15
2018-08-27T02:13:40.160Z,56.57
2018-08-27T02:14:40.164Z,56.61
2018-08-27T02:15:40.132Z,56.74
2018-08-27T02:16:40.120Z,56.55
2018-08-27T02:17:40.127Z,56.74
2018-08-27T02:18:40.122Z,56.8
2018-08-27T02:19:40.108Z,56.85
2018-08-27T02:20:40.169Z,56.63
2018-08-27T02:21:40.160Z,56.79
2018-08-27T02:22:40.132Z,56.7
2018-08-27T02:23:40.093Z,56.71
2018-08-27T02:24:40.146Z,57.01
2018-08-27T02:25:40.122Z,57.15
2018-08-27T02:26:40.126Z,57.06
2018-08-27T02:27:40.113Z,56.96
2018-08-27T02:28:40.129Z,57.25
2018-08-27T02:29:40.483Z,56.98
2018-08-27T02:30:40.155Z,57.1
2018-08-27T02:31:40.148Z,57.04
2018-08-27T02:32:40.138Z,57.34
2018-08-27T02:33:40.405Z,57.04
2018-08-27T02:34:40.152Z,57.06
2018-08-27T02:35:40.131Z,57.35
2018-08-27T02:36:40.243Z,57.16
2018-08-27T02:37:40.181Z,56.9
2018-08-27T02:38:40.112Z,57.15
2018-08-27T02:39:40.567Z,56.9
2018-08-27T02:40:40.195Z,56.8
2018-08-27T02:41:40.159Z,57.12
2018-08-27T02:42:40.270Z,56.94
2018-08-27T02:43:40.133Z,57.16
2018-08-27T02:44:40.252Z,56.54
2018-08-27T02:45:40.260Z,56.91
2018-08-27T02:46:40.194Z,57.23
2018-08-27T02:47:40.325Z,57.03
2018-08-27T02:48:40.219Z,56.82
2018-08-27T02:49:40.455Z,56.64
2018-08-27T02:50:40.321Z,56.85
2018-08-27T02:51:40.188Z,56.64
2018-08-27T02:52:40.180Z,56.71
2018-08-27T02:53:40.228Z,56.76
2018-08-27T02:54:40.160Z,56.77
2018-08-27T02:55:40.356Z,56.89
2018-08-27T02:56:40.225Z,56.76
2018-08-27T02:57:40.140Z,57.07
2018-08-27T02:58:40.222Z,56.76
2018-08-27T02:59:40.498Z,57
2018-08-27T03:00:40.328Z,57.01
2018-08-27T03:01:40.210Z,56.84
2018-08-27T03:02:40.294Z,56.96
2018-08-27T03:03:40.170Z,56.92
2018-08-27T03:04:40.369Z,56.55
2018-08-27T03:05:40.165Z,57.08
2018-08-27T03:06:40.181Z,56.67
2018-08-27T03:07:40.291Z,56.86
2018-08-27T03:08:40.299Z,56.97
2018-08-27T03:09:40.353Z,56.99
2018-08-27T03:10:40.477Z,57.12
2018-08-27T03:11:40.217Z,56.98
2018-08-27T03:12:40.223Z,56.67
2018-08-27T03:13:40.179Z,57.18
2018-08-27T03:14:40.194Z,57.3
2018-08-27T03:15:40.241Z,57.11
2018-08-27T03:16:40.342Z,57.04
2018-08-27T03:17:40.261Z,57.42
2018-08-27T03:18:40.168Z,57.26
2018-08-27T03:19:40.474Z,57.08
2018-08-27T03:20:40.373Z,56.98
2018-08-27T03:21:40.171Z,57.21
2018-08-27T03:22:40.205Z,57.55
2018-08-27T03:23:40.228Z,57.02
2018-08-27T03:24:40.200Z,57.02
2018-08-27T03:25:40.183Z,57.1
2018-08-27T03:26:40.191Z,57.43
2018-08-27T03:27:40.226Z,57.36
2018-08-27T03:28:40.186Z,57.16
2018-08-27T03:29:40.191Z,57.13
2018-08-27T03:30:40.218Z,57.02
2018-08-27T03:31:40.190Z,57.06
2018-08-27T03:32:40.197Z,56.94
2018-08-27T03:33:40.207Z,56.95
2018-08-27T03:34:40.214Z,56.91
2018-08-27T03:35:40.186Z,57.13
2018-08-27T03:36:40.205Z,56.89
2018-08-27T03:37:40.189Z,57.03
2018-08-27T03:38:40.205Z,56.97
2018-08-27T03:39:40.202Z,56.96
2018-08-27T03:40:40.227Z,56.96
2018-08-27T03:41:40.249Z,56.99
2018-08-27T03:42:40.216Z,56.65
2018-08-27T03:43:40.215Z,56.68
2018-08-27T03:44:40.213Z,56.69
2018-08-27T03:45:40.200Z,56.68
2018-08-27T03:46:40.209Z,56.67
2018-08-27T03:47:40.228Z,56.57
2018-08-27T03:48:40.281Z,56.7
2018-08-27T03:49:40.524Z,56.55
2018-08-27T03:50:40.224Z,56.47
2018-08-27T03:51:40.285Z,56.48
2018-08-27T03:52:40.211Z,56.72
2018-08-27T03:53:40.404Z,56.37
2018-08-27T03:54:40.375Z,56.56
2018-08-27T03:55:40.224Z,56.45
2018-08-27T03:56:40.251Z,56.53
2018-08-27T03:57:40.365Z,56.63
2018-08-27T03:58:40.223Z,56.67
2018-08-27T03:59:40.286Z,56.57
2018-08-27T04:00:40.314Z,56.27
2018-08-27T04:01:40.233Z,56.6
2018-08-27T04:02:40.264Z,56.53
2018-08-27T04:03:40.736Z,56.51
2018-08-27T04:04:40.380Z,56.77
2018-08-27T04:05:40.392Z,57.01
2018-08-27T04:06:40.237Z,56.74
2018-08-27T04:07:40.759Z,56.58
2018-08-27T04:08:40.260Z,56.52
2018-08-27T04:09:40.416Z,56.42
2018-08-27T04:10:40.248Z,56.54
2018-08-27T04:11:40.228Z,56.62
2018-08-27T04:12:40.396Z,56.64
2018-08-27T04:13:40.245Z,56.84
2018-08-27T04:14:40.235Z,57.06
2018-08-27T04:15:40.506Z,56.76
2018-08-27T04:16:40.388Z,56.85
2018-08-27T04:17:40.230Z,56.83
2018-08-27T04:18:40.245Z,56.86
2018-08-27T04:19:40.468Z,56.87
2018-08-27T04:20:40.587Z,56.85
2018-08-27T04:21:40.296Z,56.66
2018-08-27T04:22:40.326Z,57.12
2018-08-27T04:23:40.241Z,56.63
2018-08-27T04:24:40.245Z,57
2018-08-27T04:25:40.266Z,56.86
2018-08-27T04:26:40.252Z,57.03
2018-08-27T04:27:40.244Z,56.93
2018-08-27T04:28:40.278Z,56.88
2018-08-27T04:29:40.591Z,56.69
2018-08-27T04:30:40.339Z,57.08
2018-08-27T04:31:40.284Z,57.01
2018-08-27T04:32:40.330Z,57.11
2018-08-27T04:33:40.287Z,57.22
2018-08-27T04:34:40.348Z,57.34
2018-08-27T04:35:40.386Z,57.07
2018-08-27T04:36:40.429Z,56.94
2018-08-27T04:37:40.340Z,56.95
2018-08-27T04:38:40.294Z,57.01
2018-08-27T04:39:40.383Z,57.21
2018-08-27T04:40:40.275Z,57.32
2018-08-27T04:41:40.649Z,57.15
2018-08-27T04:42:40.767Z,57.42
2018-08-27T04:43:40.303Z,57.22
2018-08-27T04:44:40.410Z,57.27
2018-08-27T04:45:40.284Z,57.25
2018-08-27T04:46:40.374Z,57.53
2018-08-27T04:47:40.360Z,57.27
2018-08-27T04:48:40.301Z,57.19
2018-08-27T04:49:40.838Z,57.24
2018-08-27T04:50:40.304Z,57.54
2018-08-27T04:51:40.285Z,57.66
2018-08-27T04:52:40.280Z,57.27
2018-08-27T04:53:40.279Z,57.28
2018-08-27T04:54:40.457Z,57.22
2018-08-27T04:55:40.298Z,57.98
2018-08-27T04:56:40.326Z,57.41
2018-08-27T04:57:40.494Z,57.42
2018-08-27T04:58:40.542Z,57.28
2018-08-27T04:59:40.364Z,57.56
2018-08-27T05:00:40.322Z,57.66
2018-08-27T05:01:40.323Z,57.28
2018-08-27T05:02:40.313Z,57.12
2018-08-27T05:03:40.326Z,57.03
2018-08-27T05:04:40.365Z,57.52
2018-08-27T05:05:40.299Z,57.22
2018-08-27T05:06:40.346Z,57.51
2018-08-27T05:07:40.329Z,57.58
2018-08-27T05:08:40.414Z,57.54
2018-08-27T05:09:40.287Z,57.57
2018-08-27T05:10:40.288Z,57.43
2018-08-27T05:11:40.325Z,57.74
2018-08-27T05:12:40.369Z,57.57
2018-08-27T05:13:40.321Z,57.4
2018-08-27T05:14:40.356Z,57.61
2018-08-27T05:15:40.520Z,57.39
2018-08-27T05:16:40.412Z,57.21
2018-08-27T05:17:41.556Z,57.5
2018-08-27T05:18:40.477Z,57.45
2018-08-27T05:19:40.636Z,57.5
2018-08-27T05:20:40.553Z,57.42
2018-08-27T05:21:40.293Z,57.65
2018-08-27T05:22:40.339Z,57.71
2018-08-27T05:23:40.894Z,57.62
2018-08-27T05:24:40.380Z,57.21
2018-08-27T05:25:40.630Z,57.25
2018-08-27T05:26:40.484Z,57.38
2018-08-27T05:27:40.381Z,57.12
2018-08-27T05:28:40.401Z,56.93
2018-08-27T05:29:40.708Z,57.03
2018-08-27T05:30:40.783Z,57.46
2018-08-27T05:31:40.342Z,57.27
2018-08-27T05:32:40.378Z,57.69
2018-08-27T05:33:40.373Z,57.43
2018-08-27T05:34:40.741Z,57.32
2018-08-27T05:35:40.523Z,57.18
2018-08-27T05:36:40.753Z,57.26
2018-08-27T05:37:40.425Z,57.06
2018-08-27T05:38:40.674Z,57.11
2018-08-27T05:39:40.377Z,57.05
2018-08-27T05:40:40.490Z,57.02
2018-08-27T05:41:40.378Z,57.04
2018-08-27T05:42:40.349Z,57.05
2018-08-27T05:43:40.397Z,57.04
2018-08-27T05:44:40.927Z,57.03
2018-08-27T05:45:40.402Z,56.84
2018-08-27T05:46:40.544Z,56.95
2018-08-27T05:47:40.457Z,56.92
2018-08-27T05:48:40.345Z,56.75
2018-08-27T05:49:40.398Z,56.58
2018-08-27T05:50:40.470Z,56.91
2018-08-27T05:51:40.372Z,56.71
2018-08-27T05:52:40.678Z,56.68
2018-08-27T05:53:40.452Z,56.46
2018-08-27T05:54:40.693Z,56.52
2018-08-27T05:55:40.896Z,56.52
2018-08-27T05:56:40.408Z,56.56
2018-08-27T05:57:40.705Z,56.05
2018-08-27T05:58:40.545Z,56.08
2018-08-27T05:59:40.378Z,56.29
2018-08-27T06:00:40.525Z,56.71
2018-08-27T06:01:40.484Z,56.51
2018-08-27T06:02:40.366Z,56.74
2018-08-27T06:03:40.409Z,56.83
2018-08-27T06:04:41.251Z,56.6
2018-08-27T06:05:40.750Z,56.57
2018-08-27T06:06:40.436Z,56.64
2018-08-27T06:07:40.387Z,56.7
2018-08-27T06:08:40.463Z,56.51
2018-08-27T06:09:40.384Z,57.04
2018-08-27T06:10:40.790Z,56.54
2018-08-27T06:11:40.563Z,56.51
2018-08-27T06:12:40.409Z,56.65
2018-08-27T06:13:40.409Z,57.07
2018-08-27T06:14:40.395Z,56.73
2018-08-27T06:15:40.761Z,56.79
2018-08-27T06:16:40.447Z,56.59
2018-08-27T06:17:40.576Z,56.6
2018-08-27T06:18:40.401Z,56.48
2018-08-27T06:19:40.435Z,56.77
2018-08-27T06:20:40.475Z,56.68
2018-08-27T06:21:40.422Z,57.03
2018-08-27T06:22:40.414Z,56.44
2018-08-27T06:23:40.398Z,56.25
2018-08-27T06:24:40.380Z,56.37
2018-08-27T06:25:41.235Z,56.1
2018-08-27T06:26:40.381Z,56.34
2018-08-27T06:27:40.711Z,56.19
2018-08-27T06:28:40.537Z,56.13
2018-08-27T06:29:40.544Z,56.34
2018-08-27T06:30:40.433Z,56.3
2018-08-27T06:31:40.387Z,56.3
2018-08-27T06:32:40.399Z,56.31
2018-08-27T06:33:40.461Z,56.55
2018-08-27T06:34:40.400Z,57.02
2018-08-27T06:35:40.766Z,57.91
2018-08-27T06:36:40.407Z,57.88
2018-08-27T06:37:40.676Z,58.74
2018-08-27T06:38:40.418Z,58.72
2018-08-27T06:39:40.773Z,59.81
2018-08-27T06:40:40.469Z,60.57
2018-08-27T06:41:40.705Z,60.25
2018-08-27T06:42:40.460Z,60.67
2018-08-27T06:43:40.746Z,59.88
2018-08-27T06:44:40.459Z,59.75
2018-08-27T06:45:40.450Z,59.28
2018-08-27T06:46:40.450Z,58.79
2018-08-27T06:47:40.565Z,60.25
2018-08-27T06:48:40.452Z,60.14
2018-08-27T06:49:40.967Z,61.04
2018-08-27T06:50:40.447Z,60.28
2018-08-27T06:51:40.465Z,60.2
2018-08-27T06:52:40.847Z,60.91
2018-08-27T06:53:40.419Z,61.01
2018-08-27T06:54:40.541Z,61.7
2018-08-27T06:55:40.428Z,60.66
2018-08-27T06:56:40.615Z,61.58
2018-08-27T06:57:40.493Z,62.88
2018-08-27T06:58:40.814Z,61.35
2018-08-27T06:59:40.447Z,62.13
2018-08-27T07:00:40.747Z,62.35
2018-08-27T07:01:40.455Z,63.16
2018-08-27T07:02:40.634Z,62.82
2018-08-27T07:03:41.039Z,65.17
2018-08-27T07:04:40.557Z,66.11
2018-08-27T07:05:40.456Z,63.29
2018-08-27T07:06:41.211Z,61.84
2018-08-27T07:07:40.548Z,62.62
2018-08-27T07:08:40.485Z,62.4
2018-08-27T07:09:40.893Z,62.21
2018-08-27T07:10:40.449Z,65.1
2018-08-27T07:11:40.583Z,63.82
2018-08-27T07:12:40.485Z,63.62
2018-08-27T07:13:40.470Z,64.09
2018-08-27T07:14:40.963Z,63.87
2018-08-27T07:15:40.663Z,63.66
2018-08-27T07:16:40.604Z,63.17
2018-08-27T07:17:40.536Z,63.39
2018-08-27T07:18:40.459Z,63.79
2018-08-27T07:19:40.712Z,63.99
2018-08-27T07:20:40.449Z,64.96
2018-08-27T07:21:40.566Z,65.47
2018-08-27T07:22:40.586Z,66.38
2018-08-27T07:23:40.825Z,65.38
2018-08-27T07:24:40.448Z,65.77
2018-08-27T07:25:40.454Z,64.99
2018-08-27T07:26:40.501Z,65.13
2018-08-27T07:27:40.527Z,65.59
2018-08-27T07:28:40.597Z,65.37
2018-08-27T07:29:40.471Z,65.37
2018-08-27T07:30:40.741Z,65.61
2018-08-27T07:31:40.520Z,65.44
2018-08-27T07:32:40.724Z,65.62
2018-08-27T07:33:40.486Z,66.22
2018-08-27T07:34:40.871Z,67.1
2018-08-27T07:35:40.543Z,67.14
2018-08-27T07:36:40.725Z,65.9
2018-08-27T07:37:40.465Z,66.67
2018-08-27T07:38:40.475Z,66.12
2018-08-27T07:39:40.488Z,66.09
2018-08-27T07:40:40.493Z,67.09
2018-08-27T07:41:40.495Z,67.27
2018-08-27T07:42:40.656Z,68.04
2018-08-27T07:43:41.468Z,67.36
2018-08-27T07:44:40.473Z,67.14
2018-08-27T07:45:40.674Z,66.9
2018-08-27T07:46:40.560Z,67.45
2018-08-27T07:47:41.797Z,66.94
2018-08-27T07:48:41.076Z,67.91
2018-08-27T07:49:40.459Z,67.39
2018-08-27T07:50:40.536Z,67.31
2018-08-27T07:51:40.882Z,67.54
2018-08-27T07:52:40.786Z,66.92
2018-08-27T07:53:40.489Z,66.97
2018-08-27T07:54:40.521Z,67.05
2018-08-27T07:55:40.548Z,67.14
2018-08-27T07:56:40.635Z,66.76
2018-08-27T07:57:40.504Z,68.12
2018-08-27T07:58:40.827Z,67.67
2018-08-27T07:59:40.646Z,67.29
2018-08-27T08:00:40.469Z,68.01
2018-08-27T08:01:40.549Z,67.43
2018-08-27T08:02:40.870Z,67.14
2018-08-27T08:03:40.564Z,67.89
2018-08-27T08:04:40.636Z,66.43
2018-08-27T08:05:40.498Z,66.87
2018-08-27T08:06:40.653Z,66.22
2018-08-27T08:07:40.554Z,66.63
2018-08-27T08:08:40.514Z,67.1
2018-08-27T08:09:40.685Z,67.58
2018-08-27T08:10:40.534Z,67.9
2018-08-27T08:11:41.269Z,67.48
2018-08-27T08:12:40.513Z,67.13
2018-08-27T08:13:40.722Z,67.34
2018-08-27T08:14:41.030Z,66.47
2018-08-27T08:15:40.535Z,67.12
2018-08-27T08:16:40.589Z,66.79
2018-08-27T08:17:40.556Z,66.37
2018-08-27T08:18:40.678Z,65.97
2018-08-27T08:19:40.500Z,65.56
2018-08-27T08:20:40.689Z,64.96
2018-08-27T08:21:40.687Z,66.4
2018-08-27T08:22:40.621Z,65.93
2018-08-27T08:23:40.695Z,65.3
2018-08-27T08:24:40.510Z,64.96
2018-08-27T08:25:41.777Z,64.67
2018-08-27T08:26:40.589Z,64.48
2018-08-27T08:27:41.547Z,64.89
2018-08-27T08:28:40.936Z,65.14
2018-08-27T08:29:40.943Z,64.09
2018-08-27T08:30:41.013Z,62.52
2018-08-27T08:31:40.543Z,62.24
2018-08-27T08:32:40.691Z,62.27
2018-08-27T08:33:40.535Z,62.95
2018-08-27T08:34:40.667Z,62.79
2018-08-27T08:35:40.600Z,63.37
2018-08-27T08:36:41.229Z,63.62
2018-08-27T08:37:40.577Z,64.04
2018-08-27T08:38:40.582Z,64.59
2018-08-27T08:39:40.572Z,63.64
2018-08-27T08:40:41.162Z,63.16
2018-08-27T08:41:40.562Z,62.38
2018-08-27T08:42:40.554Z,62.95
2018-08-27T08:43:40.739Z,62.38
2018-08-27T08:44:40.781Z,62.77
2018-08-27T08:45:41.164Z,62.46
2018-08-27T08:46:40.762Z,63.09
2018-08-27T08:47:40.625Z,61.84
2018-08-27T08:48:40.559Z,61.65
2018-08-27T08:49:40.669Z,60.73
2018-08-27T08:50:40.621Z,59.76
2018-08-27T08:51:40.692Z,60.23
2018-08-27T08:52:40.881Z,60.43
2018-08-27T08:53:40.900Z,60.16
2018-08-27T08:54:40.553Z,61.18
2018-08-27T08:55:40.582Z,58.87
2018-08-27T08:56:40.711Z,58.92
2018-08-27T08:57:40.712Z,58.46
2018-08-27T08:58:40.571Z,59.33
2018-08-27T08:59:40.555Z,60.43
2018-08-27T09:00:40.848Z,60.32
2018-08-27T09:01:40.712Z,60.18
2018-08-27T09:02:41.188Z,59.47
2018-08-27T09:03:40.710Z,59.7
2018-08-27T09:04:40.767Z,59.22
2018-08-27T09:05:42.099Z,59.8
2018-08-27T09:06:40.667Z,60.75
2018-08-27T09:07:40.748Z,60.66
2018-08-27T09:08:40.790Z,59.22
2018-08-27T09:09:40.744Z,58.67
2018-08-27T09:10:41.337Z,58.29
2018-08-27T09:11:40.582Z,58.17
2018-08-27T09:12:40.573Z,58.96
2018-08-27T09:13:40.582Z,57.51
2018-08-27T09:14:40.583Z,58.27
2018-08-27T09:15:40.642Z,57.9
2018-08-27T09:16:40.743Z,57.82
2018-08-27T09:17:40.732Z,58.04
2018-08-27T09:18:40.601Z,58.49
2018-08-27T09:19:40.578Z,58.5
2018-08-27T09:20:40.729Z,58.4
2018-08-27T09:21:40.669Z,58.25
2018-08-27T09:22:40.778Z,57.38
2018-08-27T09:23:40.771Z,56.91
2018-08-27T09:24:41.417Z,57.37
2018-08-27T09:25:40.599Z,57.15
2018-08-27T09:26:40.643Z,56.89
2018-08-27T09:27:41.033Z,58.88
2018-08-27T09:28:40.618Z,58.17
2018-08-27T09:29:40.790Z,60.39
2018-08-27T09:30:40.698Z,60.13
2018-08-27T09:31:40.982Z,60.46
2018-08-27T09:32:40.965Z,59.78
2018-08-27T09:33:40.594Z,59.84
2018-08-27T09:34:40.697Z,60.73
2018-08-27T09:35:40.654Z,61.14
2018-08-27T09:36:40.661Z,62.01
2018-08-27T09:37:40.703Z,60.84
2018-08-27T09:38:40.686Z,61.42
2018-08-27T09:39:40.666Z,61.28
2018-08-27T09:40:40.935Z,60.82
2018-08-27T09:41:41.307Z,60.86
2018-08-27T09:42:40.678Z,60.15
2018-08-27T09:43:40.941Z,60.51
2018-08-27T09:44:41.089Z,60.95
2018-08-27T09:45:40.682Z,60.93
2018-08-27T09:46:40.717Z,60.32
2018-08-27T09:47:40.652Z,60.39
2018-08-27T09:48:40.646Z,60.13
2018-08-27T09:49:40.633Z,60.02
2018-08-27T09:50:40.672Z,60.28
2018-08-27T09:51:40.744Z,60.32
2018-08-27T09:52:40.719Z,59.91
2018-08-27T09:53:40.930Z,59.62
2018-08-27T09:54:40.644Z,59.93
2018-08-27T09:55:40.642Z,60.1
2018-08-27T09:56:40.824Z,60.28
2018-08-27T09:57:40.633Z,60.46
2018-08-27T09:58:40.691Z,60.67
2018-08-27T09:59:40.623Z,61.68
2018-08-27T10:00:40.947Z,62.74
2018-08-27T10:01:40.631Z,64.23
2018-08-27T10:02:40.753Z,64.63
2018-08-27T10:03:40.649Z,65.23
2018-08-27T10:04:40.974Z,64.84
2018-08-27T10:05:40.612Z,66.23
2018-08-27T10:06:40.635Z,65.46
2018-08-27T10:07:40.619Z,65.76
2018-08-27T10:08:40.660Z,65.96
2018-08-27T10:09:40.679Z,66.22
2018-08-27T10:10:41.016Z,65.55
2018-08-27T10:11:40.626Z,65.46
2018-08-27T10:12:40.825Z,65.75
2018-08-27T10:13:40.769Z,65.77
2018-08-27T10:14:40.639Z,65.97
2018-08-27T10:15:40.642Z,66.55
2018-08-27T10:16:40.698Z,65.84
2018-08-27T10:17:40.653Z,66.02
2018-08-27T10:18:41.051Z,65.36
2018-08-27T10:19:40.735Z,64.57
2018-08-27T10:20:40.804Z,64.89
2018-08-27T10:21:40.888Z,63.55
2018-08-27T10:22:40.875Z,63.03
2018-08-27T10:23:40.722Z,62.38
2018-08-27T10:24:40.693Z,62.76
2018-08-27T10:25:40.647Z,61.9
2018-08-27T10:26:40.731Z,61.95
2018-08-27T10:27:40.643Z,61.77
2018-08-27T10:28:40.692Z,61.92
2018-08-27T10:29:40.816Z,61.69
2018-08-27T10:30:40.663Z,61.16
2018-08-27T10:31:40.897Z,61.76
2018-08-27T10:32:40.985Z,61.79
2018-08-27T10:33:41.080Z,61.72
2018-08-27T10:34:40.766Z,61.16
2018-08-27T10:35:40.873Z,61
2018-08-27T10:36:40.699Z,60.88
2018-08-27T10:37:40.722Z,60.85
2018-08-27T10:38:40.707Z,60.96
2018-08-27T10:39:40.735Z,60.57
2018-08-27T10:40:40.672Z,60.59
2018-08-27T10:41:40.748Z,60.89
2018-08-27T10:42:40.719Z,59.88
2018-08-27T10:43:40.662Z,60.12
2018-08-27T10:44:41.086Z,60.13
2018-08-27T10:45:40.744Z,60.12
2018-08-27T10:46:40.690Z,60.25
2018-08-27T10:47:40.978Z,60.13
2018-08-27T10:48:40.728Z,59.94
2018-08-27T10:49:40.805Z,59.98
2018-08-27T10:50:40.735Z,59.86
2018-08-27T10:51:40.932Z,59.98
2018-08-27T10:52:40.855Z,59.99
2018-08-27T10:53:40.707Z,59.77
2018-08-27T10:54:40.714Z,59.82
2018-08-27T10:55:40.931Z,59.77
2018-08-27T10:56:40.699Z,60.09
2018-08-27T10:57:40.738Z,59.62
2018-08-27T10:58:40.823Z,59.71
2018-08-27T10:59:40.877Z,59.96
2018-08-27T11:00:40.761Z,60.09
2018-08-27T11:01:40.716Z,59.57
2018-08-27T11:02:41.048Z,59.5
2018-08-27T11:03:40.701Z,58.85
2018-08-27T11:04:40.997Z,58.45
2018-08-27T11:05:40.746Z,58.59
2018-08-27T11:06:40.761Z,58.46
2018-08-27T11:07:40.750Z,58.29
2018-08-27T11:08:40.759Z,58.7
2018-08-27T11:09:41.015Z,58.59
2018-08-27T11:10:40.825Z,58.66
2018-08-27T11:11:41.139Z,59.17
2018-08-27T11:12:41.244Z,59.07
2018-08-27T11:13:40.916Z,59.23
2018-08-27T11:14:40.769Z,59.21
2018-08-27T11:15:40.755Z,59.31
2018-08-27T11:16:40.739Z,59.4
2018-08-27T11:17:40.756Z,59.11
2018-08-27T11:18:40.712Z,59.29
2018-08-27T11:19:40.936Z,59.03
2018-08-27T11:20:40.890Z,59.36
2018-08-27T11:21:40.817Z,59.73
2018-08-27T11:22:40.738Z,60.5
2018-08-27T11:23:40.750Z,60.72
2018-08-27T11:24:40.740Z,60.85
2018-08-27T11:25:40.768Z,61.03
2018-08-27T11:26:41.484Z,61.23
2018-08-27T11:27:40.719Z,61.75
2018-08-27T11:28:40.842Z,61.92
2018-08-27T11:29:40.963Z,62.52
2018-08-27T11:30:40.777Z,62.61
2018-08-27T11:31:40.754Z,63.13
2018-08-27T11:32:40.783Z,63.23
2018-08-27T11:33:40.750Z,63.3
2018-08-27T11:34:40.756Z,64.85
2018-08-27T11:35:41.529Z,64.94
2018-08-27T11:36:40.940Z,65.2
2018-08-27T11:37:41.414Z,65.25
2018-08-27T11:38:40.804Z,65.8
2018-08-27T11:39:41.020Z,66.34
2018-08-27T11:40:40.776Z,65.3
2018-08-27T11:41:40.769Z,65.92
2018-08-27T11:42:41.977Z,65.03
2018-08-27T11:43:40.790Z,65.59
2018-08-27T11:44:41.054Z,65.28
2018-08-27T11:45:40.890Z,65.31
2018-08-27T11:46:40.762Z,64.76
2018-08-27T11:47:41.076Z,64.77
2018-08-27T11:48:40.828Z,65.29
2018-08-27T11:49:40.790Z,64.62
2018-08-27T11:50:41.553Z,64.86
2018-08-27T11:51:40.891Z,64.32
2018-08-27T11:52:40.841Z,64.44
2018-08-27T11:53:40.889Z,65.29
2018-08-27T11:54:40.809Z,65.44
2018-08-27T11:55:40.934Z,64.6
2018-08-27T11:56:41.861Z,64.83
2018-08-27T11:57:40.831Z,64.84
2018-08-27T11:58:40.881Z,65.75
2018-08-27T11:59:40.768Z,66.33
2018-08-27T12:00:40.952Z,67
2018-08-27T12:01:40.784Z,66.87
2018-08-27T12:02:41.278Z,67.19
2018-08-27T12:03:40.972Z,67.11
2018-08-27T12:04:40.790Z,66.51
2018-08-27T12:05:40.789Z,66.22
2018-08-27T12:06:40.865Z,66.15
2018-08-27T12:07:41.147Z,66.26
2018-08-27T12:08:40.803Z,65.7
2018-08-27T12:09:40.791Z,65.6
2018-08-27T12:10:40.785Z,65.32
2018-08-27T12:11:40.929Z,65.17
2018-08-27T12:12:41.242Z,64.6
2018-08-27T12:13:40.925Z,64.99
2018-08-27T12:14:40.904Z,64.86
2018-08-27T12:15:41.576Z,65.23
2018-08-27T12:16:41.001Z,64.75
2018-08-27T12:17:40.815Z,65.4
2018-08-27T12:18:41.093Z,65.08
2018-08-27T12:19:40.821Z,65.63
2018-08-27T12:20:40.917Z,64.41
2018-08-27T12:21:40.999Z,63.89
2018-08-27T12:22:40.846Z,63.6
2018-08-27T12:23:40.895Z,63.93
2018-08-27T12:24:41.012Z,63.94
2018-08-27T12:25:40.829Z,63.72
2018-08-27T12:26:40.958Z,63.56
2018-08-27T12:27:40.937Z,63.6
2018-08-27T12:28:40.950Z,63.3
2018-08-27T12:29:40.853Z,63.34
2018-08-27T12:30:40.822Z,62.94
2018-08-27T12:31:40.943Z,62.67
2018-08-27T12:32:40.902Z,63.22
2018-08-27T12:33:40.848Z,63.05
2018-08-27T12:34:40.815Z,62.34
2018-08-27T12:35:40.897Z,62.02
2018-08-27T12:36:40.864Z,62.17
2018-08-27T12:37:41.124Z,61.96
2018-08-27T12:38:41.121Z,61.98
2018-08-27T12:39:40.880Z,61.16
2018-08-27T12:40:41.041Z,60.83
2018-08-27T12:41:41.037Z,60.97
2018-08-27T12:42:40.830Z,61.03
2018-08-27T12:43:40.902Z,60.88
2018-08-27T12:44:40.816Z,61.28
2018-08-27T12:45:40.881Z,60.53
2018-08-27T12:46:40.811Z,60.69
2018-08-27T12:47:40.810Z,60.64
2018-08-27T12:48:40.825Z,60.4
2018-08-27T12:49:40.804Z,60.38
2018-08-27T12:50:40.911Z,60.01
2018-08-27T12:51:40.891Z,59.82
2018-08-27T12:52:40.852Z,59.71
2018-08-27T12:53:40.914Z,59.81
2018-08-27T12:54:40.851Z,60.1
2018-08-27T12:55:40.941Z,60.18